createdAt,value
2022-11-18T00:01:11.224Z,3.03
2022-11-18T00:03:55.801Z,3.50
2022-11-18T00:06:40.779Z,3.65
2022-11-18T00:09:25.583Z,3.67
2022-11-18T00:12:28.950Z,3.65
2022-11-18T00:15:13.957Z,3.53
2022-11-18T00:17:58.854Z,4.00
2022-11-18T00:23:29.259Z,3.33
2022-11-18T00:26:14.510Z,3.42
2022-11-18T00:28:59.686Z,2.75
2022-11-18T00:31:44.954Z,3.58
2022-11-18T00:34:30.018Z,3.50
2022-11-18T00:37:14.989Z,3.38
2022-11-18T00:39:59.949Z,3.25
2022-11-18T00:42:50.788Z,3.55
2022-11-18T00:45:35.716Z,3.33
2022-11-18T00:48:21.230Z,4.07
2022-11-18T00:51:15.586Z,3.45
2022-11-18T00:54:00.357Z,3.55
2022-11-18T00:56:45.370Z,3.97
2022-11-18T01:02:15.010Z,3.42
2022-11-18T01:04:59.840Z,3.35
2022-11-18T01:07:45.658Z,4.20
2022-11-18T01:10:30.441Z,3.70
2022-11-18T01:13:21.842Z,3.88
2022-11-18T01:16:06.806Z,3.38
2022-11-18T01:18:52.212Z,3.88
2022-11-18T01:21:36.740Z,3.88
2022-11-18T01:24:22.131Z,3.25
2022-11-18T01:27:06.622Z,3.80
2022-11-18T01:29:51.805Z,3.30
2022-11-18T01:35:21.215Z,3.67
2022-11-18T01:38:07.065Z,4.13
2022-11-18T01:40:51.877Z,4.05
2022-11-18T01:46:39.105Z,3.80
2022-11-18T01:49:24.190Z,3.63
2022-11-18T01:54:58.921Z,4.03
2022-11-18T01:57:45.936Z,4.25
2022-11-18T02:00:30.844Z,4.50
2022-11-18T02:03:16.579Z,4.90
2022-11-18T02:06:04.441Z,7.00
2022-11-18T02:08:50.380Z,5.80
2022-11-18T02:11:50.332Z,4.57
2022-11-18T02:14:39.764Z,5.03
2022-11-18T02:18:08.269Z,5.03
2022-11-18T02:21:00.405Z,5.15
2022-11-18T02:24:07.054Z,4.85
2022-11-18T02:27:09.113Z,4.82
2022-11-18T02:30:11.722Z,5.10
2022-11-18T02:33:16.272Z,4.35
2022-11-18T02:36:22.576Z,4.47
2022-11-18T02:39:13.670Z,4.55
2022-11-18T02:44:50.320Z,4.53
2022-11-18T02:47:36.971Z,4.95
2022-11-18T02:50:25.454Z,5.00
2022-11-18T02:53:13.619Z,5.63
2022-11-18T02:56:00.484Z,4.72
2022-11-18T02:58:45.292Z,5.22
2022-11-18T03:01:33.532Z,5.65
2022-11-18T03:04:19.311Z,5.47
2022-11-18T03:07:22.229Z,5.05
2022-11-18T03:10:07.414Z,5.43
2022-11-18T03:13:10.258Z,5.22
2022-11-18T03:16:03.511Z,5.63
2022-11-18T03:19:09.304Z,5.55
2022-11-18T03:22:10.594Z,4.78
2022-11-18T03:25:05.843Z,4.90
2022-11-18T03:28:11.172Z,4.95
2022-11-18T03:31:09.485Z,4.88
2022-11-18T03:34:01.794Z,5.00
2022-11-18T03:37:00.640Z,5.00
2022-11-18T03:39:54.952Z,4.82
2022-11-18T03:42:50.397Z,5.40
2022-11-18T03:45:41.687Z,4.88
2022-11-18T03:48:31.385Z,5.18
2022-11-18T03:51:21.774Z,5.70
2022-11-18T03:54:12.152Z,5.10
2022-11-18T03:57:11.286Z,6.82
2022-11-18T04:00:03.139Z,8.18
2022-11-18T04:02:50.274Z,8.82
2022-11-18T04:05:38.639Z,8.77
2022-11-18T04:08:30.129Z,7.85
2022-11-18T04:11:41.521Z,6.03
2022-11-18T04:14:26.739Z,5.80
2022-11-18T04:17:16.907Z,5.70
2022-11-18T04:20:01.904Z,6.30
2022-11-18T04:22:48.348Z,5.95
2022-11-18T04:25:34.565Z,6.95
2022-11-18T04:28:19.259Z,8.15
2022-11-18T04:31:04.290Z,10.23
2022-11-18T04:33:49.066Z,9.00
2022-11-18T04:36:34.213Z,11.88
2022-11-18T04:39:20.030Z,9.63
2022-11-18T04:42:05.253Z,8.55
2022-11-18T04:47:34.965Z,5.88
2022-11-18T04:50:19.745Z,5.57
2022-11-18T04:53:04.973Z,5.38
2022-11-18T04:55:49.622Z,6.32
2022-11-18T04:58:34.653Z,5.05
2022-11-18T05:01:19.547Z,5.10
2022-11-18T05:06:50.395Z,5.80
2022-11-18T05:09:34.911Z,6.13
2022-11-18T05:12:38.223Z,6.95
2022-11-18T05:15:24.001Z,6.55
2022-11-18T05:18:10.778Z,7.35
2022-11-18T05:20:55.480Z,6.53
2022-11-18T05:23:40.470Z,7.20
2022-11-18T05:29:10.319Z,5.65
2022-11-18T05:34:41.315Z,5.07
2022-11-18T05:37:26.220Z,5.53
2022-11-18T05:40:11.300Z,5.22
2022-11-18T05:43:11.429Z,5.45
2022-11-18T05:45:57.485Z,6.07
2022-11-18T05:48:42.691Z,6.13
2022-11-18T05:51:27.861Z,5.72
2022-11-18T05:54:15.226Z,5.50
2022-11-18T05:56:59.983Z,6.30
2022-11-18T06:02:30.194Z,4.32
2022-11-18T06:05:18.525Z,6.88
2022-11-18T06:08:03.767Z,10.05
2022-11-18T06:10:50.269Z,14.85
2022-11-18T06:13:42.110Z,11.50
2022-11-18T06:16:30.366Z,8.43
2022-11-18T06:53:40.956Z,5.22
2022-11-18T06:56:37.533Z,6.60
2022-11-18T06:59:29.603Z,6.18
2022-11-18T07:02:25.632Z,6.60
2022-11-18T07:05:10.677Z,6.88
2022-11-18T07:08:01.623Z,7.57
2022-11-18T07:11:03.361Z,6.63
2022-11-18T07:17:06.873Z,5.30
2022-11-18T07:22:44.681Z,4.90
2022-11-18T07:28:15.756Z,7.28
2022-11-18T07:31:05.321Z,7.15
2022-11-18T07:34:16.573Z,6.57
2022-11-18T07:37:01.525Z,6.07
2022-11-18T07:39:46.271Z,6.38
2022-11-18T07:42:43.850Z,5.32
2022-11-18T07:45:40.886Z,5.82
2022-11-18T07:51:13.175Z,4.80
2022-11-18T07:53:58.427Z,5.22
2022-11-18T07:56:48.876Z,4.65
2022-11-18T07:59:33.741Z,4.20
2022-11-18T08:02:22.769Z,4.15
2022-11-18T08:05:08.835Z,4.80
2022-11-18T08:07:56.910Z,4.38
2022-11-18T08:10:41.721Z,4.90
2022-11-18T08:13:29.568Z,4.53
2022-11-18T08:16:20.395Z,4.88
2022-11-18T08:19:08.185Z,5.35
2022-11-18T08:21:53.514Z,6.97
2022-11-18T08:24:38.859Z,7.20
2022-11-18T08:30:08.996Z,5.70
2022-11-18T08:32:55.437Z,5.70
2022-11-18T08:35:44.341Z,5.63
2022-11-18T08:38:29.228Z,6.70
2022-11-18T08:41:17.194Z,7.32
2022-11-18T08:44:03.878Z,6.60
2022-11-18T08:46:49.504Z,7.72
2022-11-18T08:52:23.775Z,8.27
2022-11-18T08:55:09.727Z,9.60
2022-11-18T08:57:59.021Z,9.95
2022-11-18T09:00:45.358Z,10.77
2022-11-18T09:03:47.165Z,10.00
2022-11-18T09:06:34.474Z,9.82
2022-11-18T09:09:20.027Z,9.90
2022-11-18T09:12:05.387Z,10.10
2022-11-18T09:15:13.528Z,8.93
2022-11-18T09:17:57.260Z,7.97
2022-11-18T09:20:43.020Z,7.53
2022-11-18T09:23:28.403Z,7.68
2022-11-18T09:28:59.806Z,9.43
2022-11-18T09:31:44.898Z,8.52
2022-11-18T09:37:15.492Z,8.10
2022-11-18T09:40:00.484Z,7.93
2022-11-18T09:42:56.868Z,7.78
2022-11-18T09:45:48.261Z,7.90
2022-11-18T09:48:55.446Z,8.07
2022-11-18T09:51:55.479Z,7.47
2022-11-18T09:54:40.208Z,7.03
2022-11-18T10:00:49.410Z,7.22
2022-11-18T10:03:43.577Z,7.50
2022-11-18T10:09:40.584Z,7.43
2022-11-18T10:12:56.185Z,7.78
2022-11-18T10:15:58.555Z,7.40
2022-11-18T10:19:00.898Z,7.10
2022-11-18T10:21:46.143Z,7.72
2022-11-18T10:27:21.200Z,7.13
2022-11-18T10:30:24.992Z,7.72
2022-11-18T10:33:42.564Z,8.05
2022-11-18T10:36:32.899Z,7.30
2022-11-18T10:39:18.319Z,7.68
2022-11-18T10:42:06.521Z,7.90
2022-11-18T10:44:53.346Z,7.00
2022-11-18T10:47:38.012Z,7.75
2022-11-18T10:50:41.020Z,8.18
2022-11-18T10:53:34.713Z,7.95
2022-11-18T10:56:21.445Z,7.95
2022-11-18T10:59:32.887Z,7.70
2022-11-18T11:02:40.944Z,7.45
2022-11-18T11:05:27.811Z,8.13
2022-11-18T11:08:37.092Z,9.13
2022-11-18T11:11:26.337Z,9.00
2022-11-18T11:14:43.657Z,8.68
2022-11-18T11:18:19.080Z,9.30
2022-11-18T11:24:14.943Z,9.48
2022-11-18T11:30:58.728Z,9.25
2022-11-18T11:34:29.227Z,9.95
2022-11-18T11:37:42.273Z,10.68
2022-11-18T11:40:40.465Z,11.27
2022-11-18T11:43:51.956Z,8.73
2022-11-18T11:47:07.175Z,9.38
2022-11-18T11:49:57.398Z,8.98
2022-11-18T11:52:49.941Z,9.20
2022-11-18T11:55:53.029Z,8.88
2022-11-18T11:59:15.112Z,8.27
2022-11-18T12:12:54.757Z,8.07
2022-11-18T12:16:00.572Z,8.82
2022-11-18T12:19:01.767Z,8.88
2022-11-18T12:21:46.350Z,9.10
2022-11-18T12:24:38.406Z,7.63
2022-11-18T12:27:34.540Z,7.93
2022-11-18T12:30:20.282Z,8.68
2022-11-18T12:35:59.454Z,7.13
2022-11-18T12:38:44.480Z,8.48
2022-11-18T12:42:00.107Z,8.35
2022-11-18T12:44:50.502Z,9.82
2022-11-18T12:47:41.078Z,9.68
2022-11-18T12:50:53.096Z,10.25
2022-11-18T12:53:53.951Z,8.88
2022-11-18T12:56:39.861Z,9.13
2022-11-18T12:59:34.093Z,8.82
2022-11-18T13:02:22.852Z,8.90
2022-11-18T13:05:22.956Z,9.70
2022-11-18T13:08:13.087Z,11.30
2022-11-18T13:11:22.952Z,10.55
2022-11-18T13:14:34.926Z,10.32
2022-11-18T13:17:58.010Z,11.88
2022-11-18T13:20:53.174Z,10.48
2022-11-18T13:23:59.315Z,11.02
2022-11-18T13:26:47.171Z,9.73
2022-11-18T13:29:38.035Z,10.02
2022-11-18T13:32:29.081Z,11.15
2022-11-18T13:35:15.203Z,10.70
2022-11-18T13:38:03.158Z,9.57
2022-11-18T13:41:04.391Z,10.07
2022-11-18T13:43:54.032Z,9.75
2022-11-18T13:46:40.660Z,9.75
2022-11-18T13:50:14.744Z,9.80
2022-11-18T13:53:21.400Z,11.05
2022-11-18T13:56:20.713Z,11.02
2022-11-18T13:59:21.135Z,9.48
2022-11-18T14:02:12.591Z,10.68
2022-11-18T14:04:59.232Z,9.20
2022-11-18T14:08:13.594Z,9.02
2022-11-18T14:10:59.281Z,8.73
2022-11-18T14:13:51.368Z,8.50
2022-11-18T14:16:38.684Z,9.18
2022-11-18T14:19:31.893Z,9.00
2022-11-18T14:22:21.322Z,9.13
2022-11-18T14:25:23.437Z,8.95
2022-11-18T14:28:13.266Z,10.77
2022-11-18T14:31:21.456Z,10.57
2022-11-18T14:34:27.195Z,9.88
2022-11-18T14:37:13.406Z,10.18
2022-11-18T14:39:58.097Z,11.02
2022-11-18T14:45:27.445Z,12.18
2022-11-18T14:51:00.105Z,10.25
2022-11-18T14:53:44.946Z,11.55
2022-11-18T14:59:17.373Z,11.30
2022-11-18T15:02:02.456Z,13.02
2022-11-18T15:04:48.315Z,12.20
2022-11-18T15:07:33.219Z,12.85
2022-11-18T15:10:18.089Z,12.93
2022-11-18T15:13:02.968Z,12.55
2022-11-18T15:18:32.419Z,12.48
2022-11-18T15:24:02.683Z,11.68
2022-11-18T15:26:47.948Z,13.70
2022-11-18T15:32:17.053Z,11.45
2022-11-18T15:35:02.354Z,12.65
2022-11-18T15:37:47.076Z,13.18
2022-11-18T15:43:17.259Z,11.70
2022-11-18T15:46:02.047Z,11.20
2022-11-18T15:51:33.379Z,10.27
2022-11-18T15:54:19.120Z,10.63
2022-11-18T15:57:04.784Z,11.25
2022-11-18T15:59:49.692Z,10.90
2022-11-18T16:05:19.114Z,10.85
2022-11-18T16:08:04.487Z,10.88
2022-11-18T16:11:13.848Z,10.55
2022-11-18T16:14:02.464Z,10.68
2022-11-18T16:16:49.432Z,10.45
2022-11-18T16:19:34.258Z,11.02
2022-11-18T16:22:18.994Z,11.13
2022-11-18T16:27:49.202Z,10.20
2022-11-18T16:30:52.697Z,11.35
2022-11-18T16:33:37.492Z,11.25
2022-11-18T16:36:28.821Z,11.02
2022-11-18T16:39:16.315Z,11.82
2022-11-18T16:42:07.974Z,11.20
2022-11-18T16:44:53.886Z,12.45
2022-11-18T16:50:23.316Z,10.73
2022-11-18T16:53:08.563Z,11.80
2022-11-18T16:55:53.434Z,12.35
2022-11-18T16:58:38.470Z,13.10
2022-11-18T17:01:29.169Z,13.20
2022-11-18T17:04:15.147Z,16.83
2022-11-18T17:09:44.902Z,14.80
2022-11-18T17:15:15.034Z,14.00
2022-11-18T17:17:59.990Z,14.90
2022-11-18T17:20:45.009Z,13.50
2022-11-18T17:26:17.163Z,12.48
2022-11-18T17:29:02.201Z,12.57
2022-11-18T17:31:46.964Z,13.32
2022-11-18T17:34:32.174Z,12.95
2022-11-18T17:40:01.888Z,17.70
2022-11-18T17:42:49.674Z,20.40
2022-11-18T17:45:34.966Z,19.23
2022-11-18T17:48:21.489Z,21.00
2022-11-18T17:51:06.305Z,19.67
2022-11-18T17:56:36.173Z,16.02
2022-11-18T17:59:22.386Z,16.58
2022-11-18T18:02:11.070Z,16.50
2022-11-18T18:04:57.486Z,14.10
2022-11-18T18:07:42.231Z,13.65
2022-11-18T18:10:27.349Z,13.68
2022-11-18T18:16:16.080Z,12.77
2022-11-18T18:19:04.171Z,13.85
2022-11-18T18:21:49.997Z,13.35
2022-11-18T18:24:35.022Z,13.27
2022-11-18T18:30:05.733Z,12.18
2022-11-18T18:32:52.603Z,13.13
2022-11-18T18:35:41.010Z,12.52
2022-11-18T18:38:26.129Z,12.73
2022-11-18T18:41:13.410Z,14.00
2022-11-18T18:43:59.163Z,13.50
2022-11-18T18:46:44.217Z,12.77
2022-11-18T18:52:15.224Z,13.05
2022-11-18T18:57:44.541Z,13.82
2022-11-18T19:03:18.018Z,13.55
2022-11-18T19:06:49.087Z,13.55
2022-11-18T19:09:24.401Z,13.95
2022-11-18T19:12:28.671Z,12.98
2022-11-18T19:15:13.996Z,13.27
2022-11-18T19:17:59.139Z,14.95
2022-11-18T19:23:29.346Z,13.07
2022-11-18T19:26:14.113Z,12.93
2022-11-18T19:31:43.398Z,13.18
2022-11-18T19:34:28.373Z,13.73
2022-11-18T19:37:13.402Z,13.98
2022-11-18T19:40:04.297Z,13.57
2022-11-18T19:42:52.790Z,12.40
2022-11-18T19:45:37.432Z,12.82
2022-11-18T19:51:13.107Z,11.85
2022-11-18T19:53:59.785Z,13.68
2022-11-18T19:56:45.919Z,11.75
2022-11-18T20:02:15.233Z,12.18
2022-11-18T20:05:18.441Z,12.23
2022-11-18T20:08:03.610Z,12.40
2022-11-18T20:10:49.233Z,13.10
2022-11-18T20:13:35.850Z,12.45
2022-11-18T20:16:23.549Z,12.23
2022-11-18T20:19:16.604Z,12.45
2022-11-18T20:22:01.174Z,12.35
2022-11-18T20:27:33.254Z,12.02
2022-11-18T20:30:18.518Z,11.48
2022-11-18T20:33:03.274Z,11.23
2022-11-18T20:38:32.752Z,11.35
2022-11-18T20:41:18.730Z,12.38
2022-11-18T20:44:04.159Z,11.98
2022-11-18T20:46:49.860Z,12.55
2022-11-18T20:49:34.778Z,12.43
2022-11-18T20:52:19.538Z,12.43
2022-11-18T20:57:51.144Z,11.93
2022-11-18T21:03:21.996Z,10.43
2022-11-18T21:06:13.470Z,11.48
2022-11-18T21:09:01.913Z,11.45
2022-11-18T21:11:46.582Z,11.40
2022-11-18T21:14:31.554Z,11.80
2022-11-18T21:17:16.816Z,12.80
2022-11-18T21:20:21.371Z,11.90
2022-11-18T21:23:06.017Z,11.27
2022-11-18T21:25:51.162Z,11.65
2022-11-18T21:31:23.386Z,12.43
2022-11-18T21:34:10.296Z,11.95
2022-11-18T21:36:55.535Z,11.63
2022-11-18T21:39:40.602Z,12.25
2022-11-18T21:42:25.673Z,12.20
2022-11-18T21:45:10.729Z,12.80
2022-11-18T21:47:55.412Z,12.68
2022-11-18T21:50:40.351Z,12.20
2022-11-18T21:56:16.270Z,11.63
2022-11-18T21:59:02.398Z,11.80
2022-11-18T22:01:47.379Z,11.55
2022-11-18T22:07:46.358Z,11.93
2022-11-18T22:10:31.221Z,11.98
2022-11-18T22:13:15.802Z,12.52
2022-11-18T22:16:09.684Z,12.35
2022-11-18T22:18:59.171Z,12.43
2022-11-18T22:21:45.992Z,11.70
2022-11-18T22:24:30.880Z,12.30
2022-11-18T22:27:15.838Z,12.77
2022-11-18T22:32:45.667Z,11.52
2022-11-18T22:38:15.451Z,10.80
2022-11-18T22:43:45.915Z,11.48
2022-11-18T22:46:31.345Z,12.27
2022-11-18T22:49:15.984Z,12.93
2022-11-18T22:52:01.350Z,12.25
2022-11-18T22:54:45.982Z,12.50
2022-11-18T23:00:19.646Z,12.40
2022-11-18T23:03:04.462Z,12.90
2022-11-18T23:05:49.492Z,13.63
2022-11-18T23:08:36.585Z,13.50
2022-11-18T23:11:39.858Z,12.00
2022-11-18T23:14:24.759Z,13.30
2022-11-18T23:17:09.576Z,12.68
2022-11-18T23:19:54.435Z,11.88
2022-11-18T23:22:39.580Z,13.90
2022-11-18T23:25:24.416Z,14.13
2022-11-18T23:28:09.554Z,13.90
2022-11-18T23:31:06.241Z,14.40
2022-11-18T23:33:53.161Z,14.25
2022-11-18T23:36:38.349Z,14.98
2022-11-18T23:39:23.229Z,14.30
2022-11-18T23:44:54.480Z,13.35
2022-11-18T23:47:39.132Z,14.02
2022-11-18T23:53:08.703Z,13.40
2022-11-18T23:55:55.088Z,14.25
2022-11-18T23:58:42.212Z,14.25
